Time;durP1;ratioP1;P1;durP2;ratioP2;P2;SDS_P1;SDS_P2;PMS_P1;PMS_P2;Temp;Humidity;BMP_temperature;BMP_pressure;BME280_temperature;BME280_humidity;BME280_pressure;Samples;Min_cycle;Max_cycle;Signal;HPM_P1;HPM_P2
2022/12/12 00:00:52;;;;;;;6.30;1.80;;;;;;;0.17;78.55;98705.09;105742;1294;60083;-71
2022/12/12 00:03:40;;;;;;;6.40;1.40;;;;;;;0.19;78.17;98699.72;105915;1291;60153;-69
2022/12/12 00:06:28;;;;;;;6.80;1.40;;;;;;;0.22;77.99;98696.59;105949;1291;72130;-70
2022/12/12 00:09:16;;;;;;;7.00;1.70;;;;;;;0.23;77.73;98688.50;105089;1292;1002843;-70
2022/12/12 00:12:04;;;;;;;5.90;1.60;;;;;;;0.25;77.12;98694.18;105266;1289;1002376;-72
2022/12/12 00:14:52;;;;;;;6.30;1.50;;;;;;;0.25;77.20;98695.35;105798;1290;59577;-71
2022/12/12 00:17:41;;;;;;;8.00;1.80;;;;;;;0.28;77.02;98692.09;105928;1290;59243;-72
2022/12/12 00:20:28;;;;;;;6.40;1.70;;;;;;;0.29;76.85;98689.58;105899;1288;71563;-71
2022/12/12 00:23:16;;;;;;;5.50;1.30;;;;;;;0.28;76.41;98687.51;106001;1290;69042;-70
2022/12/12 00:26:13;;;;;;;6.90;1.70;;;;;;;0.28;76.39;98688.91;105916;1291;71039;-71
2022/12/12 00:29:03;;;;;;;5.00;1.40;;;;;;;0.28;76.37;98685.95;105856;1292;57641;-72
2022/12/12 00:31:51;;;;;;;5.70;1.50;;;;;;;0.26;76.02;98681.72;105873;1292;60291;-72
2022/12/12 00:34:41;;;;;;;8.10;1.90;;;;;;;0.27;75.57;98683.05;106001;1282;72682;-70
2022/12/12 00:37:28;;;;;;;5.90;1.50;;;;;;;0.26;74.58;98679.75;105604;1300;67533;-70
2022/12/12 00:40:16;;;;;;;7.10;1.70;;;;;;;0.28;74.99;98684.92;105636;1297;72829;-72
2022/12/12 00:43:04;;;;;;;5.80;1.40;;;;;;;0.30;75.45;98685.65;105661;1295;57304;-71
2022/12/12 00:45:52;;;;;;;5.50;1.40;;;;;;;0.30;75.86;98684.61;105659;1302;60440;-70
2022/12/12 00:48:40;;;;;;;6.50;1.30;;;;;;;0.31;76.38;98690.11;105628;1296;71826;-69
2022/12/12 00:51:29;;;;;;;5.70;1.60;;;;;;;0.32;76.48;98692.70;105629;1285;69110;-71
2022/12/12 00:54:17;;;;;;;7.60;1.90;;;;;;;0.34;76.26;98696.27;105638;1295;73029;-71
2022/12/12 00:57:06;;;;;;;5.90;1.40;;;;;;;0.34;75.38;98691.73;105553;1297;57464;-72
2022/12/12 00:59:53;;;;;;;5.40;1.60;;;;;;;0.34;74.65;98689.48;105577;1295;60028;-71
2022/12/12 01:02:41;;;;;;;6.50;1.60;;;;;;;0.33;74.26;98696.11;105638;1289;74209;-71
2022/12/12 01:05:29;;;;;;;6.30;1.40;;;;;;;0.33;74.01;98693.84;105657;1295;69122;-70
2022/12/12 01:08:16;;;;;;;6.40;1.40;;;;;;;0.33;74.36;98697.67;105751;1292;72796;-71
2022/12/12 01:11:07;;;;;;;5.40;1.40;;;;;;;0.34;74.65;98697.13;105910;1292;57254;-71
2022/12/12 01:13:56;;;;;;;7.30;1.50;;;;;;;0.34;74.91;98687.33;105939;1292;60059;-71
2022/12/12 01:16:44;;;;;;;5.70;1.90;;;;;;;0.34;75.33;98685.40;105925;1292;73119;-71
2022/12/12 01:19:31;;;;;;;5.20;1.70;;;;;;;0.36;75.25;98681.52;105995;1284;69043;-70
2022/12/12 01:22:19;;;;;;;5.80;1.80;;;;;;;0.34;75.00;98681.42;106022;1290;70785;-70
2022/12/12 01:25:08;;;;;;;5.50;1.70;;;;;;;0.34;75.24;98684.05;105177;1292;1002315;-71
2022/12/12 01:27:58;;;;;;;5.40;1.40;;;;;;;0.35;75.08;98675.98;105991;1290;60092;-71
2022/12/12 01:30:46;;;;;;;6.40;1.60;;;;;;;0.36;75.12;98672.96;106000;1298;74172;-71
2022/12/12 01:33:34;;;;;;;5.10;1.40;;;;;;;0.36;74.95;98666.50;105993;1285;68161;-70
2022/12/12 01:36:23;;;;;;;7.00;2.00;;;;;;;0.35;74.32;98666.04;105980;1291;73668;-71
2022/12/12 01:39:10;;;;;;;6.70;1.50;;;;;;;0.33;73.51;98660.50;106008;1284;57172;-70
2022/12/12 01:41:58;;;;;;;6.20;1.90;;;;;;;0.32;73.43;98658.13;105960;1290;60479;-71
2022/12/12 01:44:50;;;;;;;5.20;1.20;;;;;;;0.34;73.67;98662.61;105960;1291;72655;-72
2022/12/12 01:47:37;;;;;;;5.10;1.50;;;;;;;0.33;73.53;98658.25;105759;1294;67598;-71
2022/12/12 01:50:25;;;;;;;5.70;1.90;;;;;;;0.33;73.42;98655.12;105980;1291;73381;-72
2022/12/12 01:53:16;;;;;;;6.50;1.60;;;;;;;0.31;72.95;98658.54;105780;1287;58366;-73
2022/12/12 01:56:11;;;;;;;5.10;1.40;;;;;;;0.30;72.89;98659.86;105931;1285;61603;-71
2022/12/12 01:59:01;;;;;;;5.20;1.60;;;;;;;0.27;73.11;98661.39;105084;1287;1003143;-70
2022/12/12 02:01:49;;;;;;;6.60;1.70;;;;;;;0.27;73.40;98656.55;105236;1290;1015351;-70
2022/12/12 02:04:38;;;;;;;6.00;1.30;;;;;;;0.27;73.56;98655.14;106009;1287;72624;-71
2022/12/12 02:07:25;;;;;;;8.10;1.70;;;;;;;0.29;74.12;98652.40;106014;1291;57137;-71
2022/12/12 02:10:14;;;;;;;5.70;1.50;;;;;;;0.30;74.29;98645.04;105993;1287;60362;-71
2022/12/12 02:13:07;;;;;;;6.20;1.60;;;;;;;0.28;74.80;98640.58;105747;1290;73153;-70
2022/12/12 02:16:07;;;;;;;6.50;1.60;;;;;;;0.29;75.41;98638.07;105922;1290;68025;-69
2022/12/12 02:19:28;;;;;;;7.20;1.80;;;;;;;0.30;75.94;98636.10;105878;1292;72899;-70
2022/12/12 02:22:52;;;;;;;7.60;1.80;;;;;;;0.30;76.80;98632.58;105156;1285;1015354;-70
2022/12/12 02:26:04;;;;;;;6.90;1.70;;;;;;;0.32;77.43;98629.77;105989;1275;61458;-69
2022/12/12 02:29:33;;;;;;;6.60;1.80;;;;;;;0.33;77.62;98623.72;105978;1292;74276;-70
2022/12/12 02:32:50;;;;;;;6.40;1.60;;;;;;;0.32;78.17;98625.16;105910;1290;68842;-70
2022/12/12 02:36:03;;;;;;;6.50;1.80;;;;;;;0.31;77.88;98620.67;105893;1292;71876;-70
2022/12/12 02:39:08;;;;;;;6.20;1.70;;;;;;;0.31;77.82;98616.37;105999;1291;57312;-69
2022/12/12 02:42:03;;;;;;;4.70;1.30;;;;;;;0.29;77.28;98616.13;105741;1291;59140;-70
2022/12/12 02:45:23;;;;;;;6.70;1.40;;;;;;;0.26;76.73;98612.23;105783;1290;73232;-71
2022/12/12 02:48:25;;;;;;;5.70;1.40;;;;;;;0.24;76.18;98613.45;105999;1292;67718;-71
2022/12/12 02:51:17;;;;;;;5.80;1.70;;;;;;;0.20;75.69;98613.15;105786;1293;73973;-71
2022/12/12 02:54:12;;;;;;;7.30;1.60;;;;;;;0.15;75.19;98609.44;105999;1290;57366;-71
2022/12/12 02:57:01;;;;;;;5.20;1.30;;;;;;;0.07;75.17;98610.38;105875;1284;61185;-70
2022/12/12 02:59:54;;;;;;;5.90;1.50;;;;;;;0.01;74.48;98608.13;105986;1291;74208;-73
2022/12/12 03:10:20;;;;;;;5.60;1.20;;;;;;;-0.20;74.47;98612.61;105987;1290;58071;-71
2022/12/12 03:14:04;;;;;;;7.40;1.50;;;;;;;-0.23;75.08;98608.29;105181;1292;1002362;-71
2022/12/12 03:17:43;;;;;;;6.50;1.20;;;;;;;-0.22;76.12;98608.20;105984;1291;72732;-70
2022/12/12 03:21:04;;;;;;;6.40;1.60;;;;;;;-0.21;76.38;98599.61;105323;1300;67887;-71
2022/12/12 03:23:58;;;;;;;5.00;1.20;;;;;;;-0.22;76.50;98596.20;105395;1299;73914;-70
2022/12/12 03:27:03;;;;;;;5.80;1.40;;;;;;;-0.25;76.68;98596.52;105418;1300;57386;-72
2022/12/12 03:30:04;;;;;;;5.10;1.00;;;;;;;-0.28;77.15;98597.38;105341;1306;59574;-70
2022/12/12 03:33:24;;;;;;;4.90;1.40;;;;;;;-0.30;77.39;98599.98;104392;1303;1002870;-70
2022/12/12 03:36:24;;;;;;;6.90;1.60;;;;;;;-0.30;77.88;98594.04;104692;1299;1002108;-71
2022/12/12 03:39:45;;;;;;;5.70;1.60;;;;;;;-0.28;78.05;98590.09;105113;1306;72741;-70
2022/12/12 03:42:45;;;;;;;5.80;1.40;;;;;;;-0.25;78.35;98584.52;104499;1301;1002401;-71
2022/12/12 03:45:57;;;;;;;6.90;1.50;;;;;;;-0.25;78.41;98582.73;105378;1299;60499;-71
2022/12/12 03:48:56;;;;;;;5.60;1.30;;;;;;;-0.24;78.17;98582.90;104544;1303;1002208;-70
2022/12/12 03:51:54;;;;;;;6.40;1.50;;;;;;;-0.24;78.39;98578.69;105097;1303;68002;-71
2022/12/12 03:54:52;;;;;;;5.50;1.60;;;;;;;-0.21;78.69;98581.64;104495;1300;1002744;-71
2022/12/12 03:57:52;;;;;;;7.10;1.50;;;;;;;-0.20;78.71;98580.02;105689;1291;57242;-70
2022/12/12 04:00:44;;;;;;;4.90;1.30;;;;;;;-0.18;79.00;98574.34;105895;1291;61165;-70
2022/12/12 04:03:55;;;;;;;5.30;1.40;;;;;;;-0.17;79.26;98573.23;105141;1291;1002160;-71
2022/12/12 04:06:58;;;;;;;5.20;1.40;;;;;;;-0.14;79.49;98570.83;105076;1291;1002190;-71
2022/12/12 04:13:43;;;;;;;6.70;1.50;;;;;;;-0.09;79.89;98568.09;106013;1291;57176;-70
2022/12/12 04:16:39;;;;;;;8.30;1.40;;;;;;;-0.05;79.95;98572.20;105416;1299;61516;-71
2022/12/12 04:23:43;;;;;;;6.00;1.60;;;;;;;-0.05;80.38;98568.86;104680;1304;1002404;-72
2022/12/12 04:26:44;;;;;;;6.80;1.90;;;;;;;-0.02;80.34;98570.81;105409;1291;72444;-71
2022/12/12 04:29:51;;;;;;;5.70;1.30;;;;;;;0.00;79.86;98563.20;104599;1298;1002088;-72
2022/12/12 04:32:41;;;;;;;5.80;1.40;;;;;;;0.05;79.11;98561.16;105409;1299;60682;-71
2022/12/12 04:35:44;;;;;;;4.70;1.40;;;;;;;0.06;78.43;98553.74;105436;1300;71801;-71
2022/12/12 04:38:33;;;;;;;5.90;1.50;;;;;;;0.07;78.05;98552.31;105272;1298;67823;-71
2022/12/12 04:41:22;;;;;;;6.50;1.60;;;;;;;0.08;77.39;98553.68;104593;1299;1002439;-71
2022/12/12 04:44:13;;;;;;;7.40;1.60;;;;;;;0.08;77.50;98554.18;105292;1300;58866;-71
2022/12/12 04:47:04;;;;;;;7.00;1.60;;;;;;;0.09;77.64;98551.67;105251;1300;61558;-71
2022/12/12 04:49:52;;;;;;;6.80;1.60;;;;;;;0.11;77.55;98550.85;104591;1293;1015056;-71
2022/12/12 04:52:42;;;;;;;9.30;1.90;;;;;;;0.15;77.64;98549.63;105053;1290;1002948;-72
2022/12/12 04:55:42;;;;;;;10.20;2.50;;;;;;;0.16;77.34;98547.81;105912;1287;71118;-71
2022/12/12 04:58:30;;;;;;;9.80;2.20;;;;;;;0.18;77.39;98547.18;105782;1294;57311;-71
2022/12/12 05:01:31;;;;;;;10.00;2.20;;;;;;;0.15;77.28;98546.08;105992;1284;61156;-71
2022/12/12 05:04:56;;;;;;;11.20;2.50;;;;;;;0.15;78.05;98548.69;105249;1291;1002661;-71
2022/12/12 05:07:54;;;;;;;10.50;2.30;;;;;;;0.15;78.64;98547.15;105788;1290;69045;-70
2022/12/12 05:10:45;;;;;;;9.30;2.60;;;;;;;0.15;79.44;98547.52;105905;1284;71005;-70
2022/12/12 05:13:36;;;;;;;7.70;2.20;;;;;;;0.15;79.87;98549.42;105782;1294;57098;-69
2022/12/12 05:17:10;;;;;;;7.20;1.90;;;;;;;0.13;80.30;98549.88;105817;1286;59075;-71
2022/12/12 05:19:58;;;;;;;7.70;1.90;;;;;;;0.12;80.49;98544.17;105356;1300;74305;-71
2022/12/12 05:22:45;;;;;;;7.20;1.90;;;;;;;0.10;80.47;98541.52;104698;1299;1014650;-69
2022/12/12 05:25:33;;;;;;;5.60;1.80;;;;;;;0.07;80.32;98541.73;105413;1301;73896;-69
2022/12/12 05:28:20;;;;;;;8.30;1.80;;;;;;;0.03;81.17;98544.38;105400;1298;58992;-69
2022/12/12 05:31:08;;;;;;;8.10;2.60;;;;;;;0.01;81.69;98542.08;104599;1300;1002627;-71
2022/12/12 05:33:56;;;;;;;7.00;2.20;;;;;;;-0.03;83.14;98543.29;105367;1299;71587;-71
2022/12/12 05:36:44;;;;;;;10.90;2.80;;;;;;;-0.06;84.12;98549.77;105380;1296;68151;-72
2022/12/12 05:39:32;;;;;;;6.90;2.20;;;;;;;-0.10;85.40;98547.56;105399;1293;70912;-73
2022/12/12 05:42:20;;;;;;;7.40;2.10;;;;;;;-0.14;87.14;98546.41;105378;1298;57666;-70
2022/12/12 05:45:09;;;;;;;6.80;2.00;;;;;;;-0.16;88.38;98544.98;105393;1306;60052;-70
2022/12/12 05:47:57;;;;;;;7.50;1.90;;;;;;;-0.18;88.80;98543.63;105051;1295;199688;-71
2022/12/12 05:50:45;;;;;;;8.90;2.10;;;;;;;-0.20;89.55;98541.13;105388;1301;67579;-72
2022/12/12 05:53:32;;;;;;;7.30;2.70;;;;;;;-0.21;90.07;98538.94;105515;1283;72983;-72
2022/12/12 05:56:29;;;;;;;7.10;2.00;;;;;;;-0.23;91.34;98537.14;105901;1298;59623;-73
2022/12/12 05:59:17;;;;;;;6.40;1.80;;;;;;;-0.25;91.77;98534.84;105960;1292;59583;-69
2022/12/12 06:02:05;;;;;;;5.80;1.80;;;;;;;-0.27;92.49;98537.91;105975;1297;74146;-69
2022/12/12 06:04:53;;;;;;;6.30;2.00;;;;;;;-0.30;92.73;98538.42;105884;1291;69056;-70
2022/12/12 06:07:40;;;;;;;6.10;1.90;;;;;;;-0.32;92.42;98536.45;105885;1288;73162;-69
2022/12/12 06:10:28;;;;;;;6.70;1.70;;;;;;;-0.38;92.79;98533.48;105907;1291;58315;-70
2022/12/12 06:13:15;;;;;;;5.90;2.00;;;;;;;-0.40;92.50;98534.80;105914;1291;58681;-71
2022/12/12 06:16:10;;;;;;;6.00;1.90;;;;;;;-0.40;92.70;98535.31;105878;1290;73875;-71
2022/12/12 06:18:57;;;;;;;7.70;2.10;;;;;;;-0.40;92.99;98536.19;105814;1277;67747;-70
2022/12/12 06:21:46;;;;;;;5.90;2.10;;;;;;;-0.40;92.87;98533.94;105794;1290;72438;-70
2022/12/12 06:24:34;;;;;;;8.30;1.60;;;;;;;-0.41;92.67;98532.79;105788;1291;57195;-69
2022/12/12 06:27:22;;;;;;;7.20;1.90;;;;;;;-0.42;92.72;98536.66;105907;1291;59293;-70
2022/12/12 06:30:10;;;;;;;6.50;2.00;;;;;;;-0.44;92.41;98539.56;105900;1288;73006;-70
2022/12/12 06:32:57;;;;;;;7.10;1.90;;;;;;;-0.45;92.21;98532.48;105893;1291;68024;-70
2022/12/12 06:35:56;;;;;;;8.30;1.90;;;;;;;-0.45;92.23;98529.17;105888;1291;72629;-70
2022/12/12 06:38:44;;;;;;;7.80;1.60;;;;;;;-0.47;91.80;98525.96;105722;1283;57221;-69
2022/12/12 06:41:32;;;;;;;7.00;1.80;;;;;;;-0.47;91.50;98526.87;105898;1291;60557;-69
2022/12/12 06:44:20;;;;;;;10.20;2.10;;;;;;;-0.48;91.51;98531.94;105876;1284;74103;-71
2022/12/12 06:47:07;;;;;;;6.60;1.80;;;;;;;-0.46;91.66;98529.92;105164;1291;1002963;-70
2022/12/12 06:49:55;;;;;;;5.80;1.90;;;;;;;-0.46;92.08;98528.88;105128;1291;1002694;-70
2022/12/12 06:52:43;;;;;;;8.20;1.90;;;;;;;-0.45;92.20;98530.91;105895;1285;58837;-71
2022/12/12 06:55:30;;;;;;;7.50;2.00;;;;;;;-0.45;92.41;98529.34;105918;1291;58944;-69
2022/12/12 06:58:18;;;;;;;7.50;2.10;;;;;;;-0.44;92.62;98522.51;105890;1291;72767;-69
2022/12/12 07:01:06;;;;;;;8.40;1.90;;;;;;;-0.42;92.35;98521.00;105878;1292;67902;-71
2022/12/12 07:03:53;;;;;;;7.60;1.90;;;;;;;-0.39;92.22;98518.88;105024;1290;1002470;-69
2022/12/12 07:06:42;;;;;;;5.90;1.80;;;;;;;-0.35;91.86;98518.31;105816;1290;58282;-69
2022/12/12 07:09:29;;;;;;;5.80;1.80;;;;;;;-0.31;91.82;98516.67;105881;1290;61149;-70
2022/12/12 07:12:17;;;;;;;7.20;1.60;;;;;;;-0.26;91.25;98512.76;105159;1290;1002500;-69
2022/12/12 07:15:06;;;;;;;5.60;1.80;;;;;;;-0.22;91.20;98514.27;105925;1278;67936;-70
2022/12/12 07:17:54;;;;;;;5.70;2.10;;;;;;;-0.20;91.18;98510.31;105167;1275;1002459;-70
2022/12/12 07:20:44;;;;;;;6.10;1.70;;;;;;;-0.17;91.02;98507.53;105905;1284;59014;-71
2022/12/12 07:23:33;;;;;;;6.60;1.70;;;;;;;-0.14;91.15;98504.70;105160;1291;1002499;-71
2022/12/12 07:26:22;;;;;;;7.10;1.80;;;;;;;-0.12;91.28;98503.06;105917;1291;71365;-69
2022/12/12 07:29:10;;;;;;;6.30;1.90;;;;;;;-0.10;91.30;98503.98;105904;1291;68459;-70
2022/12/12 07:31:58;;;;;;;7.70;1.70;;;;;;;-0.08;91.09;98506.29;105172;1283;1002456;-72
2022/12/12 07:34:46;;;;;;;7.60;1.70;;;;;;;-0.06;91.13;98508.80;105901;1285;57204;-70
2022/12/12 07:37:33;;;;;;;6.20;1.80;;;;;;;-0.03;91.30;98510.52;105158;1284;1002410;-71
2022/12/12 07:40:22;;;;;;;7.90;2.40;;;;;;;-0.00;91.10;98510.05;105794;1294;72668;-70
2022/12/12 07:43:10;;;;;;;8.20;2.30;;;;;;;-0.00;91.41;98506.00;104991;1291;1002766;-70
2022/12/12 07:45:57;;;;;;;7.00;2.20;;;;;;;0.03;91.41;98504.23;105887;1297;73787;-72
2022/12/12 07:48:45;;;;;;;6.60;2.30;;;;;;;0.05;91.45;98498.91;105853;1283;58318;-71
2022/12/12 07:51:34;;;;;;;6.90;2.00;;;;;;;0.08;91.47;98498.05;105879;1291;60085;-69
2022/12/12 07:54:22;;;;;;;6.90;2.30;;;;;;;0.13;91.34;98500.54;105795;1290;74155;-68
2022/12/12 07:57:09;;;;;;;6.90;2.20;;;;;;;0.19;91.05;98497.55;105862;1292;69066;-69
2022/12/12 07:59:57;;;;;;;6.80;2.00;;;;;;;0.25;90.68;98495.80;105885;1291;73935;-70
2022/12/12 08:02:45;;;;;;;8.10;2.60;;;;;;;0.29;90.59;98495.86;105892;1290;58717;-70
2022/12/12 08:05:33;;;;;;;6.90;2.50;;;;;;;0.35;90.31;98491.90;105883;1291;61397;-69
2022/12/12 08:08:20;;;;;;;7.10;2.30;;;;;;;0.43;90.07;98489.64;105885;1297;71841;-69
2022/12/12 08:11:11;;;;;;;7.50;2.40;;;;;;;0.51;89.57;98495.80;105917;1291;67657;-69
2022/12/12 08:14:00;;;;;;;8.00;2.30;;;;;;;0.57;89.33;98497.87;105857;1285;72842;-67
2022/12/12 08:16:47;;;;;;;9.60;2.40;;;;;;;0.62;88.99;98495.30;105919;1291;57193;-68
2022/12/12 08:19:35;;;;;;;7.00;2.20;;;;;;;0.62;88.45;98489.90;105889;1284;61550;-68
2022/12/12 08:22:23;;;;;;;7.30;2.30;;;;;;;0.63;88.53;98496.67;105855;1291;73901;-72
2022/12/12 08:25:11;;;;;;;6.20;2.30;;;;;;;0.58;89.22;98497.66;105157;1291;1002454;-68
2022/12/12 08:27:59;;;;;;;8.70;3.10;;;;;;;0.53;90.30;98496.36;105913;1289;71431;-69
2022/12/12 08:30:50;;;;;;;8.50;2.40;;;;;;;0.51;90.90;98497.70;105907;1291;60015;-69
2022/12/12 08:33:38;;;;;;;8.10;2.70;;;;;;;0.55;90.94;98493.31;105913;1284;58676;-69
2022/12/12 08:36:29;;;;;;;7.20;2.80;;;;;;;0.56;90.91;98499.84;105894;1291;73279;-71
2022/12/12 08:39:17;;;;;;;7.50;2.60;;;;;;;0.56;91.19;98498.67;105915;1284;66029;-69
2022/12/12 08:42:05;;;;;;;6.60;2.30;;;;;;;0.54;92.15;98499.98;105924;1283;71693;-70
2022/12/12 08:44:53;;;;;;;7.90;2.50;;;;;;;0.54;92.37;98501.71;105144;1298;1003007;-69
2022/12/12 08:47:41;;;;;;;7.10;2.40;;;;;;;0.57;92.76;98501.38;105906;1284;60510;-71
2022/12/12 08:50:29;;;;;;;7.60;2.60;;;;;;;0.61;92.76;98502.89;105771;1292;73010;-71
2022/12/12 08:53:17;;;;;;;8.60;3.10;;;;;;;0.61;92.64;98507.58;105924;1290;66023;-70
2022/12/12 08:56:06;;;;;;;8.00;2.70;;;;;;;0.60;92.89;98509.39;105892;1290;73182;-69
2022/12/12 08:58:53;;;;;;;7.70;2.50;;;;;;;0.61;93.70;98506.73;105890;1298;58927;-70
2022/12/12 09:01:41;;;;;;;7.20;2.70;;;;;;;0.62;93.83;98509.46;105884;1298;60536;-71
2022/12/12 09:04:29;;;;;;;8.10;2.70;;;;;;;0.64;93.74;98509.13;105807;1292;74048;-70
2022/12/12 09:07:17;;;;;;;7.00;2.60;;;;;;;0.71;93.87;98510.31;105808;1288;68966;-72
2022/12/12 09:10:05;;;;;;;7.00;2.30;;;;;;;0.80;93.62;98510.25;105888;1284;72719;-71
2022/12/12 09:12:54;;;;;;;8.30;2.80;;;;;;;0.83;93.74;98510.57;105847;1292;58865;-70
2022/12/12 09:15:41;;;;;;;9.90;2.70;;;;;;;0.80;93.58;98510.03;105906;1291;61162;-70
2022/12/12 09:18:29;;;;;;;6.80;2.00;;;;;;;0.84;93.82;98508.58;105937;1291;72743;-69
2022/12/12 09:21:18;;;;;;;6.70;2.20;;;;;;;0.85;93.79;98503.70;105916;1291;67720;-69
2022/12/12 09:24:06;;;;;;;7.10;2.30;;;;;;;0.85;93.62;98504.85;105894;1291;72713;-70
2022/12/12 09:26:54;;;;;;;6.20;1.60;;;;;;;0.87;93.94;98502.16;105911;1290;59947;-70
2022/12/12 09:29:42;;;;;;;6.90;2.20;;;;;;;0.85;94.03;98502.41;105893;1291;61689;-71
2022/12/12 09:32:29;;;;;;;6.70;2.70;;;;;;;0.89;93.86;98504.98;105901;1284;72187;-71
2022/12/12 09:35:17;;;;;;;7.40;2.80;;;;;;;0.94;93.94;98504.33;105896;1284;65488;-69
2022/12/12 09:38:05;;;;;;;7.10;2.60;;;;;;;0.97;93.63;98508.52;105903;1291;72561;-70
2022/12/12 09:41:09;;;;;;;7.60;2.50;;;;;;;0.97;93.59;98507.63;105792;1287;57446;-69
2022/12/12 09:44:17;;;;;;;6.20;2.20;;;;;;;0.97;93.60;98509.34;105912;1285;59059;-71
2022/12/12 09:47:14;;;;;;;8.10;2.50;;;;;;;0.93;93.57;98504.21;105884;1291;71738;-71
2022/12/12 09:50:15;;;;;;;6.80;2.20;;;;;;;0.89;93.90;98510.94;105721;1292;65606;-69
2022/12/12 09:53:10;;;;;;;6.90;2.30;;;;;;;0.87;94.27;98512.98;105803;1291;73725;-71
2022/12/12 09:56:20;;;;;;;7.20;2.20;;;;;;;0.82;94.56;98503.83;105792;1295;57632;-70
2022/12/12 09:59:25;;;;;;;7.80;2.30;;;;;;;0.84;94.73;98502.66;105892;1291;60585;-71
2022/12/12 10:02:42;;;;;;;6.50;2.50;;;;;;;0.88;94.77;98499.10;105899;1298;72745;-69
2022/12/12 10:06:18;;;;;;;6.40;2.00;;;;;;;0.92;94.77;98499.55;105910;1291;68921;-71
2022/12/12 10:10:00;;;;;;;6.20;1.90;;;;;;;0.94;94.72;98497.50;105276;1298;72305;-72
2022/12/12 10:12:48;;;;;;;6.50;2.10;;;;;;;0.99;94.53;98498.78;105304;1307;59592;-70
2022/12/12 10:15:40;;;;;;;5.80;1.90;;;;;;;1.03;94.45;98499.23;105290;1299;61605;-72
2022/12/12 10:18:45;;;;;;;8.70;2.70;;;;;;;1.02;94.41;98499.98;105323;1306;73253;-70
2022/12/12 10:21:36;;;;;;;7.30;2.40;;;;;;;1.03;94.33;98504.27;105293;1292;68643;-70
2022/12/12 10:24:45;;;;;;;6.80;2.40;;;;;;;1.04;94.11;98499.52;105148;1299;72601;-70
2022/12/12 10:27:33;;;;;;;8.10;2.30;;;;;;;1.04;93.95;98493.95;105044;1303;58533;-72
2022/12/12 10:30:21;;;;;;;7.70;2.50;;;;;;;1.05;93.66;98488.61;105248;1300;59582;-70
2022/12/12 10:33:24;;;;;;;8.20;2.30;;;;;;;1.06;93.41;98490.15;105273;1298;74179;-69
2022/12/12 10:36:49;;;;;;;6.90;2.60;;;;;;;1.10;93.15;98492.15;105171;1294;68697;-70
2022/12/12 10:39:51;;;;;;;9.60;2.80;;;;;;;1.23;93.38;98485.54;105391;1299;73511;-72
2022/12/12 10:43:21;;;;;;;7.70;2.70;;;;;;;1.41;92.99;98483.54;105793;1294;58569;-72
2022/12/12 10:46:54;;;;;;;8.00;2.50;;;;;;;1.64;91.73;98475.02;105836;1292;61574;-69
2022/12/12 10:49:42;;;;;;;7.50;2.40;;;;;;;1.83;90.39;98470.11;105915;1292;73179;-70
2022/12/12 10:52:30;;;;;;;7.30;2.70;;;;;;;2.00;89.50;98468.73;105870;1291;66178;-70
2022/12/12 10:55:36;;;;;;;6.50;2.60;;;;;;;2.19;88.82;98466.43;105897;1290;72582;-69
2022/12/12 10:58:50;;;;;;;8.30;2.70;;;;;;;2.34;87.38;98461.70;105845;1294;60062;-69
2022/12/12 11:01:39;;;;;;;8.50;2.70;;;;;;;2.54;86.54;98461.39;105827;1291;60065;-69
2022/12/12 11:04:47;;;;;;;8.30;2.90;;;;;;;2.78;85.50;98457.27;105915;1291;71927;-70
2022/12/12 11:07:42;;;;;;;9.10;3.00;;;;;;;3.10;84.23;98455.70;105927;1291;69333;-69
2022/12/12 11:10:36;;;;;;;8.30;3.10;;;;;;;3.51;83.35;98458.98;105676;1297;73689;-69
2022/12/12 11:13:24;;;;;;;8.40;3.10;;;;;;;3.79;81.55;98459.01;105814;1295;57328;-68
2022/12/12 11:16:18;;;;;;;9.90;2.60;;;;;;;3.60;79.51;98456.42;105883;1292;61113;-70
2022/12/12 11:19:24;;;;;;;7.20;3.00;;;;;;;3.31;80.42;98456.97;105798;1290;72593;-68
2022/12/12 11:22:13;;;;;;;9.70;3.30;;;;;;;3.05;80.49;98451.67;105902;1291;68076;-68
2022/12/12 11:25:01;;;;;;;10.10;3.10;;;;;;;2.89;80.93;98458.05;105772;1295;72454;-69
2022/12/12 11:27:50;;;;;;;7.90;2.60;;;;;;;2.86;81.31;98455.13;105856;1279;57407;-68
2022/12/12 11:30:42;;;;;;;7.60;3.00;;;;;;;3.02;81.21;98446.97;105792;1292;59421;-69
2022/12/12 11:33:54;;;;;;;8.60;3.20;;;;;;;3.19;80.29;98446.79;105774;1292;73093;-69
2022/12/12 11:36:42;;;;;;;8.10;2.80;;;;;;;3.38;78.82;98455.90;105831;1292;69017;-68
2022/12/12 11:39:43;;;;;;;6.50;2.50;;;;;;;3.47;78.60;98457.02;105798;1291;72845;-68
2022/12/12 11:42:33;;;;;;;11.20;2.60;;;;;;;3.32;78.77;98454.46;105816;1292;57208;-68
2022/12/12 11:45:22;;;;;;;8.80;2.90;;;;;;;3.11;78.78;98452.80;105898;1292;60322;-68
2022/12/12 11:48:34;;;;;;;6.50;2.40;;;;;;;2.88;79.64;98458.52;105180;1292;1002088;-70
2022/12/12 11:51:38;;;;;;;7.80;2.80;;;;;;;2.63;80.32;98460.60;105810;1292;69178;-68
2022/12/12 11:54:30;;;;;;;9.20;2.80;;;;;;;2.45;80.80;98457.50;105807;1292;71349;-67
2022/12/12 11:57:46;;;;;;;8.90;3.30;;;;;;;2.31;81.54;98458.95;105766;1292;57354;-68
2022/12/12 12:01:00;;;;;;;8.50;3.30;;;;;;;2.27;82.23;98462.93;105925;1298;60429;-68
2022/12/12 12:04:09;;;;;;;9.20;3.20;;;;;;;2.15;82.46;98460.25;105775;1287;72765;-69
2022/12/12 12:07:25;;;;;;;10.20;3.70;;;;;;;2.07;83.21;98461.35;105903;1292;68699;-70
2022/12/12 12:10:44;;;;;;;9.10;3.20;;;;;;;2.03;83.50;98457.73;105890;1284;72706;-69
2022/12/12 12:14:21;;;;;;;9.50;3.00;;;;;;;2.03;83.80;98459.30;105875;1292;57269;-69
2022/12/12 12:17:20;;;;;;;9.10;3.00;;;;;;;2.09;83.83;98456.79;105905;1291;61591;-70
2022/12/12 12:20:30;;;;;;;8.20;3.40;;;;;;;2.18;83.90;98454.96;105197;1284;1002690;-72
2022/12/12 12:23:45;;;;;;;8.20;2.90;;;;;;;2.29;83.04;98447.02;105737;1292;68842;-68
2022/12/12 12:27:15;;;;;;;9.00;2.80;;;;;;;2.49;82.07;98440.42;105921;1292;72698;-70
2022/12/12 12:30:21;;;;;;;8.80;3.20;;;;;;;2.63;80.98;98435.91;105904;1290;57249;-68
2022/12/12 12:33:43;;;;;;;8.30;2.60;;;;;;;2.71;79.98;98432.52;105198;1284;1002248;-67
2022/12/12 12:37:01;;;;;;;8.20;2.60;;;;;;;2.82;79.97;98436.34;105908;1292;71787;-68
2022/12/12 12:40:02;;;;;;;8.00;2.40;;;;;;;2.78;77.42;98452.38;105924;1291;65880;-69
2022/12/12 12:43:19;;;;;;;7.90;2.10;;;;;;;2.47;78.12;98454.71;105788;1295;72770;-69
2022/12/12 12:46:32;;;;;;;8.00;2.50;;;;;;;2.11;80.75;98466.28;105714;1290;57156;-71
2022/12/12 12:49:56;;;;;;;6.90;2.00;;;;;;;1.84;83.00;98460.24;105758;1292;59893;-70
2022/12/12 12:52:56;;;;;;;7.20;2.50;;;;;;;1.56;84.88;98456.84;105916;1285;74245;-71
2022/12/12 12:55:50;;;;;;;8.00;2.90;;;;;;;1.38;86.10;98458.70;105887;1290;66636;-71
2022/12/12 12:58:46;;;;;;;7.50;2.40;;;;;;;1.20;87.44;98460.02;105904;1292;72419;-71
2022/12/12 13:01:49;;;;;;;6.80;2.40;;;;;;;1.01;89.33;98467.73;105775;1290;57224;-71
2022/12/12 13:04:52;;;;;;;6.00;2.00;;;;;;;0.85;90.83;98473.45;105793;1284;60419;-71
2022/12/12 13:08:12;;;;;;;9.30;2.70;;;;;;;0.70;91.93;98473.86;105729;1299;74495;-71
2022/12/12 13:11:19;;;;;;;7.70;2.20;;;;;;;0.57;92.77;98469.40;105930;1290;66478;-73
2022/12/12 13:14:16;;;;;;;8.10;2.60;;;;;;;0.54;92.92;98468.05;105731;1290;71471;-72
2022/12/12 13:17:11;;;;;;;7.80;2.30;;;;;;;0.54;93.40;98471.91;105780;1299;58592;-73
2022/12/12 13:19:59;;;;;;;8.50;2.70;;;;;;;0.52;93.21;98468.34;105815;1294;59043;-70
2022/12/12 13:22:55;;;;;;;9.00;2.80;;;;;;;0.51;93.87;98469.78;105779;1298;73139;-71
2022/12/12 13:26:27;;;;;;;7.90;2.80;;;;;;;0.50;93.71;98472.16;105060;1291;1002408;-72
2022/12/12 13:29:46;;;;;;;8.80;3.30;;;;;;;0.48;93.60;98473.13;105842;1290;72360;-73
2022/12/12 13:32:41;;;;;;;8.60;2.50;;;;;;;0.49;92.90;98476.02;105914;1296;57340;-71
2022/12/12 13:35:34;;;;;;;8.30;2.70;;;;;;;0.49;92.42;98481.62;105922;1292;59044;-71
2022/12/12 13:38:28;;;;;;;11.60;2.80;;;;;;;0.49;91.85;98483.67;105811;1294;72767;-70
2022/12/12 13:41:16;;;;;;;8.30;2.70;;;;;;;0.51;91.38;98483.61;105897;1292;68083;-71
2022/12/12 13:44:04;;;;;;;14.50;3.30;;;;;;;0.50;91.15;98485.92;105898;1290;72053;-71
2022/12/12 13:46:52;;;;;;;7.80;3.30;;;;;;;0.49;90.76;98486.50;105902;1290;58652;-74
2022/12/12 13:50:08;;;;;;;10.00;3.00;;;;;;;0.47;90.22;98495.87;105942;1288;60123;-71
2022/12/12 13:53:05;;;;;;;8.70;2.80;;;;;;;0.46;89.84;98496.30;105854;1293;72747;-74
2022/12/12 13:56:42;;;;;;;8.50;3.00;;;;;;;0.41;89.84;98492.42;105913;1290;67583;-73
2022/12/12 13:59:30;;;;;;;13.00;3.10;;;;;;;0.39;89.05;98490.63;105874;1290;71631;-72